sensor_id;sensor_type;location;lat;lon;timestamp;P1;durP1;ratioP1;P2;durP2;ratioP2
56073;SDS011;41950;55.840;37.442;2023-11-19T00:00:56;15.25;;;9.48;;
56073;SDS011;41950;55.840;37.442;2023-11-19T00:03:22;14.30;;;8.77;;
56073;SDS011;41950;55.840;37.442;2023-11-19T00:05:48;14.15;;;9.02;;
56073;SDS011;41950;55.840;37.442;2023-11-19T00:08:14;14.75;;;8.88;;
56073;SDS011;41950;55.840;37.442;2023-11-19T00:10:40;16.48;;;9.82;;
56073;SDS011;41950;55.840;37.442;2023-11-19T00:13:07;14.95;;;9.48;;
56073;SDS011;41950;55.840;37.442;2023-11-19T00:15:33;15.50;;;9.50;;
56073;SDS011;41950;55.840;37.442;2023-11-19T00:17:59;15.30;;;8.65;;
56073;SDS011;41950;55.840;37.442;2023-11-19T00:20:28;16.30;;;9.82;;
56073;SDS011;41950;55.840;37.442;2023-11-19T00:22:54;16.42;;;9.02;;
56073;SDS011;41950;55.840;37.442;2023-11-19T00:25:23;13.85;;;8.88;;
56073;SDS011;41950;55.840;37.442;2023-11-19T00:27:50;15.40;;;9.73;;
56073;SDS011;41950;55.840;37.442;2023-11-19T00:30:16;15.52;;;9.75;;
56073;SDS011;41950;55.840;37.442;2023-11-19T00:32:43;15.48;;;9.60;;
56073;SDS011;41950;55.840;37.442;2023-11-19T00:35:12;16.30;;;10.10;;
56073;SDS011;41950;55.840;37.442;2023-11-19T00:37:40;14.85;;;9.48;;
56073;SDS011;41950;55.840;37.442;2023-11-19T00:40:11;15.43;;;9.60;;
56073;SDS011;41950;55.840;37.442;2023-11-19T00:42:37;15.52;;;10.02;;
56073;SDS011;41950;55.840;37.442;2023-11-19T00:45:02;18.23;;;10.18;;
56073;SDS011;41950;55.840;37.442;2023-11-19T00:47:31;16.40;;;10.75;;
56073;SDS011;41950;55.840;37.442;2023-11-19T00:49:56;14.75;;;9.63;;
56073;SDS011;41950;55.840;37.442;2023-11-19T00:52:22;16.13;;;9.77;;
56073;SDS011;41950;55.840;37.442;2023-11-19T00:54:48;18.05;;;10.13;;
56073;SDS011;41950;55.840;37.442;2023-11-19T00:57:14;13.32;;;9.30;;
56073;SDS011;41950;55.840;37.442;2023-11-19T00:59:43;18.48;;;9.88;;
56073;SDS011;41950;55.840;37.442;2023-11-19T01:02:09;16.33;;;9.38;;
56073;SDS011;41950;55.840;37.442;2023-11-19T01:04:35;14.95;;;10.50;;
56073;SDS011;41950;55.840;37.442;2023-11-19T01:07:02;14.98;;;10.20;;
56073;SDS011;41950;55.840;37.442;2023-11-19T01:09:32;16.58;;;9.57;;
56073;SDS011;41950;55.840;37.442;2023-11-19T01:12:00;16.95;;;9.88;;
56073;SDS011;41950;55.840;37.442;2023-11-19T01:14:27;17.40;;;10.60;;
56073;SDS011;41950;55.840;37.442;2023-11-19T01:16:54;16.92;;;10.77;;
56073;SDS011;41950;55.840;37.442;2023-11-19T01:19:23;17.25;;;10.43;;
56073;SDS011;41950;55.840;37.442;2023-11-19T01:21:50;18.38;;;10.30;;
56073;SDS011;41950;55.840;37.442;2023-11-19T01:24:16;17.02;;;9.63;;
56073;SDS011;41950;55.840;37.442;2023-11-19T01:26:43;16.75;;;10.32;;
56073;SDS011;41950;55.840;37.442;2023-11-19T01:29:13;16.45;;;10.50;;
56073;SDS011;41950;55.840;37.442;2023-11-19T01:31:43;18.35;;;10.60;;
56073;SDS011;41950;55.840;37.442;2023-11-19T01:34:10;20.30;;;11.82;;
56073;SDS011;41950;55.840;37.442;2023-11-19T01:36:39;16.67;;;10.50;;
56073;SDS011;41950;55.840;37.442;2023-11-19T01:39:05;17.50;;;10.18;;
56073;SDS011;41950;55.840;37.442;2023-11-19T01:41:35;15.77;;;10.05;;
56073;SDS011;41950;55.840;37.442;2023-11-19T01:44:02;15.55;;;10.18;;
56073;SDS011;41950;55.840;37.442;2023-11-19T01:46:28;17.40;;;10.43;;
56073;SDS011;41950;55.840;37.442;2023-11-19T01:48:55;17.75;;;11.18;;
56073;SDS011;41950;55.840;37.442;2023-11-19T01:51:21;18.70;;;10.57;;
56073;SDS011;41950;55.840;37.442;2023-11-19T01:53:47;17.00;;;10.60;;
56073;SDS011;41950;55.840;37.442;2023-11-19T01:56:15;18.95;;;11.38;;
56073;SDS011;41950;55.840;37.442;2023-11-19T01:58:42;20.00;;;11.18;;
56073;SDS011;41950;55.840;37.442;2023-11-19T02:01:10;19.52;;;11.18;;
56073;SDS011;41950;55.840;37.442;2023-11-19T02:03:38;15.73;;;10.63;;
56073;SDS011;41950;55.840;37.442;2023-11-19T02:06:04;17.75;;;10.55;;
56073;SDS011;41950;55.840;37.442;2023-11-19T02:08:31;17.58;;;10.85;;
56073;SDS011;41950;55.840;37.442;2023-11-19T02:10:57;17.73;;;11.60;;
56073;SDS011;41950;55.840;37.442;2023-11-19T02:13:25;27.17;;;11.73;;
56073;SDS011;41950;55.840;37.442;2023-11-19T02:15:53;20.55;;;11.75;;
56073;SDS011;41950;55.840;37.442;2023-11-19T02:18:21;17.15;;;12.02;;
56073;SDS011;41950;55.840;37.442;2023-11-19T02:20:50;18.70;;;11.50;;
56073;SDS011;41950;55.840;37.442;2023-11-19T02:23:16;18.77;;;11.85;;
56073;SDS011;41950;55.840;37.442;2023-11-19T02:25:46;16.13;;;11.05;;
56073;SDS011;41950;55.840;37.442;2023-11-19T02:28:17;17.13;;;11.13;;
56073;SDS011;41950;55.840;37.442;2023-11-19T02:30:43;19.05;;;11.63;;
56073;SDS011;41950;55.840;37.442;2023-11-19T02:33:12;21.17;;;12.25;;
56073;SDS011;41950;55.840;37.442;2023-11-19T02:35:40;20.65;;;12.43;;
56073;SDS011;41950;55.840;37.442;2023-11-19T02:38:06;19.40;;;12.23;;
56073;SDS011;41950;55.840;37.442;2023-11-19T02:40:33;20.15;;;11.45;;
56073;SDS011;41950;55.840;37.442;2023-11-19T02:42:59;19.95;;;12.25;;
56073;SDS011;41950;55.840;37.442;2023-11-19T02:45:25;21.70;;;11.85;;
56073;SDS011;41950;55.840;37.442;2023-11-19T02:47:52;22.60;;;13.30;;
56073;SDS011;41950;55.840;37.442;2023-11-19T02:50:19;20.15;;;11.85;;
56073;SDS011;41950;55.840;37.442;2023-11-19T02:52:51;17.70;;;12.38;;
56073;SDS011;41950;55.840;37.442;2023-11-19T02:55:20;21.75;;;12.70;;
56073;SDS011;41950;55.840;37.442;2023-11-19T02:57:46;19.45;;;12.15;;
56073;SDS011;41950;55.840;37.442;2023-11-19T03:00:15;21.42;;;12.90;;
56073;SDS011;41950;55.840;37.442;2023-11-19T03:02:43;23.08;;;13.27;;
56073;SDS011;41950;55.840;37.442;2023-11-19T03:05:12;24.42;;;13.73;;
56073;SDS011;41950;55.840;37.442;2023-11-19T03:07:43;23.00;;;13.43;;
56073;SDS011;41950;55.840;37.442;2023-11-19T03:10:12;27.40;;;15.63;;
56073;SDS011;41950;55.840;37.442;2023-11-19T03:12:41;26.05;;;15.85;;
56073;SDS011;41950;55.840;37.442;2023-11-19T03:15:09;34.83;;;19.02;;
56073;SDS011;41950;55.840;37.442;2023-11-19T03:17:36;36.40;;;18.92;;
56073;SDS011;41950;55.840;37.442;2023-11-19T03:20:04;32.33;;;20.15;;
56073;SDS011;41950;55.840;37.442;2023-11-19T03:22:32;50.67;;;23.75;;
56073;SDS011;41950;55.840;37.442;2023-11-19T03:25:01;47.95;;;24.83;;
56073;SDS011;41950;55.840;37.442;2023-11-19T03:27:27;41.95;;;20.17;;
56073;SDS011;41950;55.840;37.442;2023-11-19T03:29:53;43.42;;;23.10;;
56073;SDS011;41950;55.840;37.442;2023-11-19T03:32:18;45.58;;;23.88;;
56073;SDS011;41950;55.840;37.442;2023-11-19T03:34:45;37.80;;;20.17;;
56073;SDS011;41950;55.840;37.442;2023-11-19T03:37:10;39.40;;;20.38;;
56073;SDS011;41950;55.840;37.442;2023-11-19T03:39:37;37.60;;;19.63;;
56073;SDS011;41950;55.840;37.442;2023-11-19T03:42:03;37.00;;;19.50;;
56073;SDS011;41950;55.840;37.442;2023-11-19T03:44:29;34.25;;;19.33;;
56073;SDS011;41950;55.840;37.442;2023-11-19T03:46:55;40.20;;;19.45;;
56073;SDS011;41950;55.840;37.442;2023-11-19T03:49:21;40.47;;;20.60;;
56073;SDS011;41950;55.840;37.442;2023-11-19T03:51:47;33.30;;;19.67;;
56073;SDS011;41950;55.840;37.442;2023-11-19T03:54:13;34.55;;;18.58;;
56073;SDS011;41950;55.840;37.442;2023-11-19T03:56:38;34.83;;;19.30;;
56073;SDS011;41950;55.840;37.442;2023-11-19T03:59:05;34.95;;;19.15;;
56073;SDS011;41950;55.840;37.442;2023-11-19T04:01:30;23.17;;;15.50;;
56073;SDS011;41950;55.840;37.442;2023-11-19T04:03:56;28.02;;;16.00;;
56073;SDS011;41950;55.840;37.442;2023-11-19T04:06:22;27.83;;;15.07;;
56073;SDS011;41950;55.840;37.442;2023-11-19T04:08:48;28.17;;;15.90;;
56073;SDS011;41950;55.840;37.442;2023-11-19T04:11:15;29.50;;;15.90;;
56073;SDS011;41950;55.840;37.442;2023-11-19T04:13:41;27.35;;;16.15;;
56073;SDS011;41950;55.840;37.442;2023-11-19T04:16:07;27.85;;;15.82;;
56073;SDS011;41950;55.840;37.442;2023-11-19T04:18:33;27.48;;;15.57;;
56073;SDS011;41950;55.840;37.442;2023-11-19T04:20:58;26.80;;;14.93;;
56073;SDS011;41950;55.840;37.442;2023-11-19T04:23:24;27.33;;;14.65;;
56073;SDS011;41950;55.840;37.442;2023-11-19T04:25:50;31.20;;;15.93;;
56073;SDS011;41950;55.840;37.442;2023-11-19T04:28:16;24.98;;;14.20;;
56073;SDS011;41950;55.840;37.442;2023-11-19T04:30:43;22.92;;;13.25;;
56073;SDS011;41950;55.840;37.442;2023-11-19T04:33:09;22.63;;;12.85;;
56073;SDS011;41950;55.840;37.442;2023-11-19T04:35:35;27.25;;;15.90;;
56073;SDS011;41950;55.840;37.442;2023-11-19T04:38:01;32.85;;;18.52;;
56073;SDS011;41950;55.840;37.442;2023-11-19T04:40:27;29.60;;;16.80;;
56073;SDS011;41950;55.840;37.442;2023-11-19T04:42:53;32.35;;;19.15;;
56073;SDS011;41950;55.840;37.442;2023-11-19T04:45:19;44.13;;;25.77;;
56073;SDS011;41950;55.840;37.442;2023-11-19T04:47:45;42.55;;;25.50;;
56073;SDS011;41950;55.840;37.442;2023-11-19T04:50:11;47.00;;;28.05;;
56073;SDS011;41950;55.840;37.442;2023-11-19T04:52:37;48.35;;;29.88;;
56073;SDS011;41950;55.840;37.442;2023-11-19T04:55:05;47.03;;;28.05;;
56073;SDS011;41950;55.840;37.442;2023-11-19T04:57:31;47.03;;;29.70;;
56073;SDS011;41950;55.840;37.442;2023-11-19T04:59:58;49.05;;;29.80;;
56073;SDS011;41950;55.840;37.442;2023-11-19T05:02:24;47.05;;;28.70;;
56073;SDS011;41950;55.840;37.442;2023-11-19T05:04:50;48.20;;;31.25;;
56073;SDS011;41950;55.840;37.442;2023-11-19T05:07:18;45.20;;;28.55;;
56073;SDS011;41950;55.840;37.442;2023-11-19T05:09:44;47.20;;;26.92;;
56073;SDS011;41950;55.840;37.442;2023-11-19T05:12:10;44.38;;;26.23;;
56073;SDS011;41950;55.840;37.442;2023-11-19T05:14:37;42.35;;;26.00;;
56073;SDS011;41950;55.840;37.442;2023-11-19T05:17:03;37.97;;;23.83;;
56073;SDS011;41950;55.840;37.442;2023-11-19T05:19:29;40.10;;;23.48;;
56073;SDS011;41950;55.840;37.442;2023-11-19T05:21:55;34.78;;;22.23;;
56073;SDS011;41950;55.840;37.442;2023-11-19T05:24:22;33.47;;;21.13;;
56073;SDS011;41950;55.840;37.442;2023-11-19T05:26:48;30.33;;;18.10;;
56073;SDS011;41950;55.840;37.442;2023-11-19T05:29:15;28.77;;;18.23;;
56073;SDS011;41950;55.840;37.442;2023-11-19T05:31:41;26.83;;;17.20;;
56073;SDS011;41950;55.840;37.442;2023-11-19T05:34:07;27.20;;;17.15;;
56073;SDS011;41950;55.840;37.442;2023-11-19T05:36:32;30.67;;;17.15;;
56073;SDS011;41950;55.840;37.442;2023-11-19T05:38:58;26.15;;;17.50;;
56073;SDS011;41950;55.840;37.442;2023-11-19T05:41:24;28.17;;;16.02;;
56073;SDS011;41950;55.840;37.442;2023-11-19T05:43:50;27.30;;;15.60;;
56073;SDS011;41950;55.840;37.442;2023-11-19T05:46:15;24.75;;;14.85;;
56073;SDS011;41950;55.840;37.442;2023-11-19T05:48:41;25.70;;;15.05;;
56073;SDS011;41950;55.840;37.442;2023-11-19T05:51:08;22.73;;;14.35;;
56073;SDS011;41950;55.840;37.442;2023-11-19T05:53:33;24.88;;;14.32;;
56073;SDS011;41950;55.840;37.442;2023-11-19T05:55:59;23.30;;;14.82;;
56073;SDS011;41950;55.840;37.442;2023-11-19T05:58:29;24.95;;;13.80;;
56073;SDS011;41950;55.840;37.442;2023-11-19T06:00:56;27.20;;;13.43;;
56073;SDS011;41950;55.840;37.442;2023-11-19T06:03:22;22.20;;;12.52;;
56073;SDS011;41950;55.840;37.442;2023-11-19T06:05:48;20.50;;;12.25;;
56073;SDS011;41950;55.840;37.442;2023-11-19T06:08:15;22.65;;;11.85;;
56073;SDS011;41950;55.840;37.442;2023-11-19T06:10:42;24.77;;;12.07;;
56073;SDS011;41950;55.840;37.442;2023-11-19T06:13:08;25.65;;;13.50;;
56073;SDS011;41950;55.840;37.442;2023-11-19T06:15:36;21.88;;;13.02;;
56073;SDS011;41950;55.840;37.442;2023-11-19T06:18:05;23.17;;;13.10;;
56073;SDS011;41950;55.840;37.442;2023-11-19T06:20:36;19.38;;;12.30;;
56073;SDS011;41950;55.840;37.442;2023-11-19T06:23:02;21.95;;;12.35;;
56073;SDS011;41950;55.840;37.442;2023-11-19T06:25:28;20.25;;;11.88;;
56073;SDS011;41950;55.840;37.442;2023-11-19T06:27:54;20.27;;;11.52;;
56073;SDS011;41950;55.840;37.442;2023-11-19T06:30:20;20.10;;;11.10;;
56073;SDS011;41950;55.840;37.442;2023-11-19T06:32:49;22.40;;;11.63;;
56073;SDS011;41950;55.840;37.442;2023-11-19T06:35:14;21.95;;;12.45;;
56073;SDS011;41950;55.840;37.442;2023-11-19T06:37:41;24.08;;;11.98;;
56073;SDS011;41950;55.840;37.442;2023-11-19T06:40:07;25.15;;;13.75;;
56073;SDS011;41950;55.840;37.442;2023-11-19T06:42:35;22.02;;;12.45;;
56073;SDS011;41950;55.840;37.442;2023-11-19T06:45:01;18.95;;;11.20;;
56073;SDS011;41950;55.840;37.442;2023-11-19T06:47:30;17.13;;;11.05;;
56073;SDS011;41950;55.840;37.442;2023-11-19T06:49:56;19.98;;;11.38;;
56073;SDS011;41950;55.840;37.442;2023-11-19T06:52:22;18.55;;;10.70;;
56073;SDS011;41950;55.840;37.442;2023-11-19T06:54:49;17.55;;;10.23;;
56073;SDS011;41950;55.840;37.442;2023-11-19T06:57:14;18.27;;;10.43;;
56073;SDS011;41950;55.840;37.442;2023-11-19T06:59:43;17.02;;;10.38;;
56073;SDS011;41950;55.840;37.442;2023-11-19T07:02:16;19.88;;;10.50;;
56073;SDS011;41950;55.840;37.442;2023-11-19T07:04:42;17.42;;;9.48;;
56073;SDS011;41950;55.840;37.442;2023-11-19T07:07:11;14.30;;;8.35;;
56073;SDS011;41950;55.840;37.442;2023-11-19T07:09:40;16.58;;;8.82;;
56073;SDS011;41950;55.840;37.442;2023-11-19T07:12:06;14.90;;;8.32;;
56073;SDS011;41950;55.840;37.442;2023-11-19T07:14:32;15.77;;;7.20;;
56073;SDS011;41950;55.840;37.442;2023-11-19T07:17:01;14.70;;;7.18;;
56073;SDS011;41950;55.840;37.442;2023-11-19T07:19:30;12.63;;;7.00;;
56073;SDS011;41950;55.840;37.442;2023-11-19T07:22:16;14.18;;;8.27;;
56073;SDS011;41950;55.840;37.442;2023-11-19T07:24:42;11.52;;;6.93;;
56073;SDS011;41950;55.840;37.442;2023-11-19T07:27:15;12.70;;;7.10;;
56073;SDS011;41950;55.840;37.442;2023-11-19T07:29:44;11.80;;;6.25;;
56073;SDS011;41950;55.840;37.442;2023-11-19T07:32:21;9.95;;;5.70;;
56073;SDS011;41950;55.840;37.442;2023-11-19T07:34:47;8.20;;;4.75;;
56073;SDS011;41950;55.840;37.442;2023-11-19T07:37:14;6.47;;;4.30;;
56073;SDS011;41950;55.840;37.442;2023-11-19T07:42:39;9.35;;;5.22;;
56073;SDS011;41950;55.840;37.442;2023-11-19T07:45:05;9.20;;;5.45;;
56073;SDS011;41950;55.840;37.442;2023-11-19T07:47:32;7.93;;;5.13;;
56073;SDS011;41950;55.840;37.442;2023-11-19T07:49:58;6.80;;;4.47;;
56073;SDS011;41950;55.840;37.442;2023-11-19T07:52:23;7.55;;;4.50;;
56073;SDS011;41950;55.840;37.442;2023-11-19T07:54:49;8.05;;;5.30;;
56073;SDS011;41950;55.840;37.442;2023-11-19T07:57:15;10.10;;;4.70;;
56073;SDS011;41950;55.840;37.442;2023-11-19T07:59:41;11.95;;;6.38;;
56073;SDS011;41950;55.840;37.442;2023-11-19T08:02:07;10.25;;;5.20;;
56073;SDS011;41950;55.840;37.442;2023-11-19T08:04:33;9.18;;;4.50;;
56073;SDS011;41950;55.840;37.442;2023-11-19T08:06:59;7.10;;;4.47;;
56073;SDS011;41950;55.840;37.442;2023-11-19T08:09:24;9.25;;;4.85;;
56073;SDS011;41950;55.840;37.442;2023-11-19T08:11:59;7.28;;;4.80;;
56073;SDS011;41950;55.840;37.442;2023-11-19T08:14:25;7.63;;;4.38;;
56073;SDS011;41950;55.840;37.442;2023-11-19T08:16:52;7.95;;;4.50;;
56073;SDS011;41950;55.840;37.442;2023-11-19T08:19:20;10.73;;;5.05;;
56073;SDS011;41950;55.840;37.442;2023-11-19T08:21:46;10.27;;;4.88;;
56073;SDS011;41950;55.840;37.442;2023-11-19T08:24:12;9.15;;;5.20;;
56073;SDS011;41950;55.840;37.442;2023-11-19T08:26:38;8.77;;;5.25;;
56073;SDS011;41950;55.840;37.442;2023-11-19T08:29:04;9.52;;;5.60;;
56073;SDS011;41950;55.840;37.442;2023-11-19T08:31:32;8.45;;;5.10;;
56073;SDS011;41950;55.840;37.442;2023-11-19T08:33:58;11.15;;;5.70;;
56073;SDS011;41950;55.840;37.442;2023-11-19T08:36:27;8.90;;;5.60;;
56073;SDS011;41950;55.840;37.442;2023-11-19T08:38:53;10.13;;;5.68;;
56073;SDS011;41950;55.840;37.442;2023-11-19T08:41:20;9.63;;;5.93;;
56073;SDS011;41950;55.840;37.442;2023-11-19T08:43:47;11.75;;;6.25;;
56073;SDS011;41950;55.840;37.442;2023-11-19T08:46:13;9.85;;;6.35;;
56073;SDS011;41950;55.840;37.442;2023-11-19T08:48:39;7.18;;;4.32;;
56073;SDS011;41950;55.840;37.442;2023-11-19T08:51:05;10.85;;;5.70;;
56073;SDS011;41950;55.840;37.442;2023-11-19T08:53:32;9.88;;;6.03;;
56073;SDS011;41950;55.840;37.442;2023-11-19T08:55:58;10.38;;;6.47;;
56073;SDS011;41950;55.840;37.442;2023-11-19T08:58:23;13.38;;;6.97;;
56073;SDS011;41950;55.840;37.442;2023-11-19T09:00:52;10.82;;;7.15;;
56073;SDS011;41950;55.840;37.442;2023-11-19T09:03:18;14.02;;;8.32;;
56073;SDS011;41950;55.840;37.442;2023-11-19T09:05:46;10.57;;;6.82;;
56073;SDS011;41950;55.840;37.442;2023-11-19T09:08:12;11.20;;;7.05;;
56073;SDS011;41950;55.840;37.442;2023-11-19T09:10:38;11.93;;;6.85;;
56073;SDS011;41950;55.840;37.442;2023-11-19T09:13:04;7.85;;;5.80;;
56073;SDS011;41950;55.840;37.442;2023-11-19T09:15:29;11.07;;;6.10;;
56073;SDS011;41950;55.840;37.442;2023-11-19T09:17:55;11.88;;;6.47;;
56073;SDS011;41950;55.840;37.442;2023-11-19T09:20:21;11.07;;;6.45;;
56073;SDS011;41950;55.840;37.442;2023-11-19T09:22:48;10.13;;;6.28;;
56073;SDS011;41950;55.840;37.442;2023-11-19T09:25:14;10.75;;;5.88;;
56073;SDS011;41950;55.840;37.442;2023-11-19T09:27:43;8.07;;;3.42;;
56073;SDS011;41950;55.840;37.442;2023-11-19T09:30:09;10.93;;;6.45;;
56073;SDS011;41950;55.840;37.442;2023-11-19T09:32:36;10.80;;;5.72;;
56073;SDS011;41950;55.840;37.442;2023-11-19T09:35:03;9.93;;;5.82;;
56073;SDS011;41950;55.840;37.442;2023-11-19T09:37:30;10.93;;;6.53;;
56073;SDS011;41950;55.840;37.442;2023-11-19T09:39:55;12.40;;;6.57;;
56073;SDS011;41950;55.840;37.442;2023-11-19T09:42:21;10.68;;;5.80;;
56073;SDS011;41950;55.840;37.442;2023-11-19T09:44:58;9.57;;;5.90;;
56073;SDS011;41950;55.840;37.442;2023-11-19T09:47:29;10.55;;;6.35;;
56073;SDS011;41950;55.840;37.442;2023-11-19T09:49:55;10.07;;;5.43;;
56073;SDS011;41950;55.840;37.442;2023-11-19T09:52:30;9.43;;;6.75;;
56073;SDS011;41950;55.840;37.442;2023-11-19T09:55:19;11.07;;;6.70;;
56073;SDS011;41950;55.840;37.442;2023-11-19T09:58:06;11.75;;;6.85;;
56073;SDS011;41950;55.840;37.442;2023-11-19T10:00:35;11.27;;;7.00;;
56073;SDS011;41950;55.840;37.442;2023-11-19T10:03:02;11.82;;;7.03;;
56073;SDS011;41950;55.840;37.442;2023-11-19T10:05:30;10.77;;;6.55;;
56073;SDS011;41950;55.840;37.442;2023-11-19T10:08:19;12.48;;;6.38;;
56073;SDS011;41950;55.840;37.442;2023-11-19T10:11:06;11.07;;;6.80;;
56073;SDS011;41950;55.840;37.442;2023-11-19T10:13:33;11.25;;;7.50;;
56073;SDS011;41950;55.840;37.442;2023-11-19T10:16:11;12.48;;;7.90;;
56073;SDS011;41950;55.840;37.442;2023-11-19T10:18:48;10.35;;;7.43;;
56073;SDS011;41950;55.840;37.442;2023-11-19T10:21:25;11.02;;;7.13;;
56073;SDS011;41950;55.840;37.442;2023-11-19T10:23:55;12.95;;;7.93;;
56073;SDS011;41950;55.840;37.442;2023-11-19T10:26:47;10.85;;;7.25;;
56073;SDS011;41950;55.840;37.442;2023-11-19T10:29:49;13.05;;;7.05;;
56073;SDS011;41950;55.840;37.442;2023-11-19T10:35:55;12.80;;;7.75;;
56073;SDS011;41950;55.840;37.442;2023-11-19T10:39:09;13.23;;;7.75;;
56073;SDS011;41950;55.840;37.442;2023-11-19T10:42:20;13.82;;;8.95;;
56073;SDS011;41950;55.840;37.442;2023-11-19T10:44:50;14.82;;;8.13;;
56073;SDS011;41950;55.840;37.442;2023-11-19T10:47:30;13.25;;;7.82;;
56073;SDS011;41950;55.840;37.442;2023-11-19T10:50:28;11.77;;;7.55;;
56073;SDS011;41950;55.840;37.442;2023-11-19T10:53:05;12.50;;;7.88;;
56073;SDS011;41950;55.840;37.442;2023-11-19T10:55:42;11.15;;;7.93;;
56073;SDS011;41950;55.840;37.442;2023-11-19T10:58:20;13.10;;;7.45;;
56073;SDS011;41950;55.840;37.442;2023-11-19T11:00:56;10.65;;;6.90;;
56073;SDS011;41950;55.840;37.442;2023-11-19T11:03:29;12.25;;;7.88;;
56073;SDS011;41950;55.840;37.442;2023-11-19T11:06:35;13.80;;;8.48;;
56073;SDS011;41950;55.840;37.442;2023-11-19T11:09:45;13.38;;;8.20;;
56073;SDS011;41950;55.840;37.442;2023-11-19T11:16:22;13.70;;;8.45;;
56073;SDS011;41950;55.840;37.442;2023-11-19T11:19:26;13.95;;;8.10;;
56073;SDS011;41950;55.840;37.442;2023-11-19T11:21:57;13.50;;;8.30;;
56073;SDS011;41950;55.840;37.442;2023-11-19T11:35:00;15.55;;;8.90;;
56073;SDS011;41950;55.840;37.442;2023-11-19T11:44:01;13.97;;;9.27;;
56073;SDS011;41950;55.840;37.442;2023-11-19T11:49:14;13.85;;;9.13;;
56073;SDS011;41950;55.840;37.442;2023-11-19T12:03:01;13.75;;;8.90;;
56073;SDS011;41950;55.840;37.442;2023-11-19T12:05:42;16.35;;;8.95;;
56073;SDS011;41950;55.840;37.442;2023-11-19T12:08:35;13.38;;;9.35;;
56073;SDS011;41950;55.840;37.442;2023-11-19T12:11:15;14.25;;;9.50;;
56073;SDS011;41950;55.840;37.442;2023-11-19T12:13:58;15.88;;;10.25;;
56073;SDS011;41950;55.840;37.442;2023-11-19T12:24:15;15.77;;;10.40;;
56073;SDS011;41950;55.840;37.442;2023-11-19T12:27:59;14.18;;;9.15;;
56073;SDS011;41950;55.840;37.442;2023-11-19T12:30:45;14.45;;;9.05;;
56073;SDS011;41950;55.840;37.442;2023-11-19T12:36:36;15.20;;;9.48;;
56073;SDS011;41950;55.840;37.442;2023-11-19T12:39:07;17.17;;;10.45;;
56073;SDS011;41950;55.840;37.442;2023-11-19T12:42:51;16.90;;;10.48;;
56073;SDS011;41950;55.840;37.442;2023-11-19T12:45:52;20.15;;;11.32;;
56073;SDS011;41950;55.840;37.442;2023-11-19T12:48:43;17.42;;;10.85;;
56073;SDS011;41950;55.840;37.442;2023-11-19T12:51:35;18.67;;;10.38;;
56073;SDS011;41950;55.840;37.442;2023-11-19T12:54:51;16.88;;;10.80;;
56073;SDS011;41950;55.840;37.442;2023-11-19T12:57:52;15.63;;;9.70;;
56073;SDS011;41950;55.840;37.442;2023-11-19T13:00:42;13.35;;;9.30;;
56073;SDS011;41950;55.840;37.442;2023-11-19T13:09:32;16.10;;;9.65;;
56073;SDS011;41950;55.840;37.442;2023-11-19T13:13:16;13.55;;;8.32;;
56073;SDS011;41950;55.840;37.442;2023-11-19T13:16:32;14.10;;;8.63;;
56073;SDS011;41950;55.840;37.442;2023-11-19T13:26:41;12.55;;;7.80;;
56073;SDS011;41950;55.840;37.442;2023-11-19T13:29:35;12.95;;;7.65;;
56073;SDS011;41950;55.840;37.442;2023-11-19T13:33:03;12.75;;;7.85;;
56073;SDS011;41950;55.840;37.442;2023-11-19T13:36:17;13.65;;;7.25;;
56073;SDS011;41950;55.840;37.442;2023-11-19T13:42:15;11.90;;;7.50;;
56073;SDS011;41950;55.840;37.442;2023-11-19T13:45:08;13.27;;;8.13;;
56073;SDS011;41950;55.840;37.442;2023-11-19T13:47:59;12.93;;;7.40;;
56073;SDS011;41950;55.840;37.442;2023-11-19T13:50:28;14.27;;;7.72;;
56073;SDS011;41950;55.840;37.442;2023-11-19T13:53:37;10.55;;;6.78;;
56073;SDS011;41950;55.840;37.442;2023-11-19T13:56:10;9.18;;;6.45;;
56073;SDS011;41950;55.840;37.442;2023-11-19T13:58:38;11.35;;;6.75;;
56073;SDS011;41950;55.840;37.442;2023-11-19T14:01:43;10.32;;;7.10;;
56073;SDS011;41950;55.840;37.442;2023-11-19T14:04:09;12.02;;;7.35;;
56073;SDS011;41950;55.840;37.442;2023-11-19T14:07:10;11.23;;;7.50;;
56073;SDS011;41950;55.840;37.442;2023-11-19T14:10:28;11.43;;;6.57;;
56073;SDS011;41950;55.840;37.442;2023-11-19T14:13:06;12.85;;;7.28;;
56073;SDS011;41950;55.840;37.442;2023-11-19T14:15:35;12.85;;;6.82;;
56073;SDS011;41950;55.840;37.442;2023-11-19T14:18:39;15.02;;;7.03;;
56073;SDS011;41950;55.840;37.442;2023-11-19T14:21:18;10.82;;;7.63;;
56073;SDS011;41950;55.840;37.442;2023-11-19T14:23:50;10.63;;;6.15;;
56073;SDS011;41950;55.840;37.442;2023-11-19T14:26:42;13.35;;;6.93;;
56073;SDS011;41950;55.840;37.442;2023-11-19T14:29:21;11.00;;;6.55;;
56073;SDS011;41950;55.840;37.442;2023-11-19T14:32:00;11.98;;;7.78;;
56073;SDS011;41950;55.840;37.442;2023-11-19T14:34:46;13.68;;;7.25;;
56073;SDS011;41950;55.840;37.442;2023-11-19T14:37:33;13.23;;;7.30;;
56073;SDS011;41950;55.840;37.442;2023-11-19T14:40:38;11.07;;;7.38;;
56073;SDS011;41950;55.840;37.442;2023-11-19T14:46:26;13.77;;;7.57;;
56073;SDS011;41950;55.840;37.442;2023-11-19T14:49:05;13.00;;;8.82;;
56073;SDS011;41950;55.840;37.442;2023-11-19T14:51:39;11.68;;;7.75;;
56073;SDS011;41950;55.840;37.442;2023-11-19T14:54:07;12.82;;;8.45;;
56073;SDS011;41950;55.840;37.442;2023-11-19T14:56:46;18.73;;;9.25;;
56073;SDS011;41950;55.840;37.442;2023-11-19T14:59:38;15.13;;;9.15;;
56073;SDS011;41950;55.840;37.442;2023-11-19T15:02:14;13.98;;;7.53;;
56073;SDS011;41950;55.840;37.442;2023-11-19T15:04:55;13.80;;;9.57;;
56073;SDS011;41950;55.840;37.442;2023-11-19T15:08:03;13.82;;;9.75;;
56073;SDS011;41950;55.840;37.442;2023-11-19T15:10:42;16.95;;;10.55;;
56073;SDS011;41950;55.840;37.442;2023-11-19T15:13:43;15.88;;;10.90;;
56073;SDS011;41950;55.840;37.442;2023-11-19T15:19:43;16.65;;;9.38;;
56073;SDS011;41950;55.840;37.442;2023-11-19T15:22:16;14.50;;;10.85;;
56073;SDS011;41950;55.840;37.442;2023-11-19T15:27:41;14.65;;;10.60;;
56073;SDS011;41950;55.840;37.442;2023-11-19T15:34:00;16.35;;;11.32;;
56073;SDS011;41950;55.840;37.442;2023-11-19T15:36:28;17.70;;;10.95;;
56073;SDS011;41950;55.840;37.442;2023-11-19T15:39:29;20.85;;;10.90;;
56073;SDS011;41950;55.840;37.442;2023-11-19T15:42:35;19.65;;;11.43;;
56073;SDS011;41950;55.840;37.442;2023-11-19T15:49:04;17.70;;;11.40;;
56073;SDS011;41950;55.840;37.442;2023-11-19T15:51:45;21.13;;;12.20;;
56073;SDS011;41950;55.840;37.442;2023-11-19T15:54:12;19.50;;;11.43;;
56073;SDS011;41950;55.840;37.442;2023-11-19T15:56:38;17.73;;;11.40;;
56073;SDS011;41950;55.840;37.442;2023-11-19T15:59:03;17.00;;;11.18;;
56073;SDS011;41950;55.840;37.442;2023-11-19T16:01:30;14.80;;;10.75;;
56073;SDS011;41950;55.840;37.442;2023-11-19T16:03:56;16.40;;;10.32;;
56073;SDS011;41950;55.840;37.442;2023-11-19T16:06:25;17.95;;;12.13;;
56073;SDS011;41950;55.840;37.442;2023-11-19T16:08:51;16.77;;;11.88;;
56073;SDS011;41950;55.840;37.442;2023-11-19T16:11:41;15.43;;;11.18;;
56073;SDS011;41950;55.840;37.442;2023-11-19T16:14:14;18.83;;;11.07;;